Time;durP1;ratioP1;P1;durP2;ratioP2;P2;SDS_P1;SDS_P2;PMS_P1;PMS_P2;Temp;Humidity;BMP_temperature;BMP_pressure;BME280_temperature;BME280_humidity;BME280_pressure;Samples;Min_cycle;Max_cycle;Signal;HPM_P1;HPM_P2
2022/05/18 00:02:01;;;;;;;9.65;5.93;;;;;;;;;;5021407;28;20232;-63
2022/05/18 00:04:26;;;;;;;13.80;6.40;;;;;;;;;;5033854;28;20211;-63
2022/05/18 00:06:52;;;;;;;10.35;6.07;;;;;;;;;;5034634;28;20307;-63
2022/05/18 00:09:17;;;;;;;12.20;7.25;;;;;;;;;;5033900;28;20214;-63
2022/05/18 00:11:42;;;;;;;11.05;6.03;;;;;;;;;;5033943;28;20303;-63
2022/05/18 00:14:07;;;;;;;14.43;6.72;;;;;;;;;;5034089;28;20207;-63
2022/05/18 00:16:33;;;;;;;10.38;6.50;;;;;;;;;;5034698;28;20215;-63
2022/05/18 00:18:58;;;;;;;13.23;6.47;;;;;;;;;;5033782;28;20216;-63
2022/05/18 00:21:23;;;;;;;11.27;7.25;;;;;;;;;;5033863;28;20646;-63
2022/05/18 00:23:48;;;;;;;10.18;7.00;;;;;;;;;;5034207;28;20212;-63
2022/05/18 00:26:14;;;;;;;14.45;6.93;;;;;;;;;;5033247;28;20219;-63
2022/05/18 00:28:39;;;;;;;12.45;6.85;;;;;;;;;;5034276;28;20215;-63
2022/05/18 00:31:04;;;;;;;11.77;7.15;;;;;;;;;;5033932;28;20242;-63
2022/05/18 00:33:30;;;;;;;12.70;7.05;;;;;;;;;;5047667;28;20251;-63
2022/05/18 00:35:57;;;;;;;10.50;7.10;;;;;;;;;;5054075;28;20599;-63
2022/05/18 00:38:22;;;;;;;13.40;7.22;;;;;;;;;;5053327;28;20211;-63
2022/05/18 00:40:48;;;;;;;13.02;7.28;;;;;;;;;;5053222;28;20404;-63
2022/05/18 00:43:34;;;;;;;11.60;8.48;;;;;;;;;;5053631;28;20431;-63
2022/05/18 00:46:00;;;;;;;12.23;7.60;;;;;;;;;;5053691;28;20290;-63
2022/05/18 00:48:26;;;;;;;12.68;8.30;;;;;;;;;;5040247;28;20216;-63
2022/05/18 00:50:51;;;;;;;13.15;7.78;;;;;;;;;;5033698;28;20583;-63
2022/05/18 00:53:23;;;;;;;13.80;8.02;;;;;;;;;;5015421;28;20314;-63
2022/05/18 00:55:51;;;;;;;11.98;7.95;;;;;;;;;;5032985;28;20214;-63
2022/05/18 00:58:18;;;;;;;15.23;8.13;;;;;;;;;;5033621;28;20216;-63
2022/05/18 01:00:43;;;;;;;14.02;8.77;;;;;;;;;;5032800;28;20679;-63
2022/05/18 01:03:20;;;;;;;15.02;9.07;;;;;;;;;;5011842;28;20235;-63
2022/05/18 01:05:46;;;;;;;12.48;8.43;;;;;;;;;;5012565;28;20687;-63
2022/05/18 01:08:12;;;;;;;13.95;8.38;;;;;;;;;;5012663;28;20212;-63
2022/05/18 01:10:38;;;;;;;13.57;8.23;;;;;;;;;;5011748;28;20220;-63
2022/05/18 01:13:04;;;;;;;14.73;9.02;;;;;;;;;;5013519;28;20232;-63
2022/05/18 01:15:32;;;;;;;11.98;8.68;;;;;;;;;;5013027;28;20217;-63
2022/05/18 01:17:58;;;;;;;11.93;8.50;;;;;;;;;;5012284;28;20235;-63
2022/05/18 01:20:25;;;;;;;14.73;9.00;;;;;;;;;;5012963;28;20239;-63
2022/05/18 01:22:51;;;;;;;14.52;10.15;;;;;;;;;;5011757;28;20216;-63
2022/05/18 01:25:35;;;;;;;13.50;9.55;;;;;;;;;;5013317;28;20268;-63
2022/05/18 01:28:00;;;;;;;14.80;9.77;;;;;;;;;;5013728;28;20303;-63
2022/05/18 01:30:26;;;;;;;17.13;10.13;;;;;;;;;;5012091;28;20307;-63
2022/05/18 01:32:53;;;;;;;14.65;10.30;;;;;;;;;;5022020;28;20228;-63
2022/05/18 01:35:19;;;;;;;14.55;10.60;;;;;;;;;;5032538;28;20250;-63
2022/05/18 01:40:48;;;;;;;17.85;11.07;;;;;;;;;;5032462;28;20215;-63
2022/05/18 01:43:15;;;;;;;18.88;11.32;;;;;;;;;;5032018;28;20212;-63
2022/05/18 01:45:40;;;;;;;16.25;11.05;;;;;;;;;;5031098;28;20251;-63
2022/05/18 01:48:07;;;;;;;15.23;10.50;;;;;;;;;;5022818;28;20247;-62
2022/05/18 01:50:32;;;;;;;17.58;11.10;;;;;;;;;;5012668;28;20212;-63
2022/05/18 01:52:57;;;;;;;15.30;10.20;;;;;;;;;;5011760;28;20322;-63
2022/05/18 01:55:24;;;;;;;17.27;11.02;;;;;;;;;;5012321;28;20263;-63
2022/05/18 01:57:49;;;;;;;16.17;10.73;;;;;;;;;;5012406;28;20267;-63
2022/05/18 02:00:15;;;;;;;17.92;10.95;;;;;;;;;;5012095;28;20220;-63
2022/05/18 02:02:40;;;;;;;12.88;10.27;;;;;;;;;;5024638;28;20266;-63
2022/05/18 02:05:06;;;;;;;15.77;10.40;;;;;;;;;;5031529;28;20243;-63
2022/05/18 02:07:31;;;;;;;14.45;10.60;;;;;;;;;;5032418;28;20671;-63
2022/05/18 02:09:58;;;;;;;17.10;10.90;;;;;;;;;;5032144;28;20204;-63
2022/05/18 02:12:23;;;;;;;15.82;10.88;;;;;;;;;;5031158;28;20304;-63
2022/05/18 02:14:49;;;;;;;18.35;11.30;;;;;;;;;;5032113;28;20258;-62
2022/05/18 02:17:14;;;;;;;14.75;11.15;;;;;;;;;;5031693;28;20204;-62
2022/05/18 02:19:39;;;;;;;16.77;11.40;;;;;;;;;;5031833;28;20219;-63
2022/05/18 02:22:04;;;;;;;17.17;12.30;;;;;;;;;;5031498;28;20210;-63
2022/05/18 02:24:30;;;;;;;16.60;12.20;;;;;;;;;;5032267;28;20207;-63
2022/05/18 02:26:55;;;;;;;18.67;11.68;;;;;;;;;;5031353;28;20273;-63
2022/05/18 02:29:20;;;;;;;15.35;11.57;;;;;;;;;;5031243;28;20576;-63
2022/05/18 02:31:46;;;;;;;16.90;12.85;;;;;;;;;;5031688;28;20277;-63
2022/05/18 02:34:11;;;;;;;15.70;10.85;;;;;;;;;;5050657;28;20207;-62
2022/05/18 02:36:36;;;;;;;16.13;12.65;;;;;;;;;;5033941;28;20586;-63
2022/05/18 02:39:02;;;;;;;19.65;14.65;;;;;;;;;;5051144;28;20261;-63
2022/05/18 02:41:27;;;;;;;18.17;13.13;;;;;;;;;;5051387;28;20249;-63
2022/05/18 02:43:54;;;;;;;17.10;12.90;;;;;;;;;;5051639;28;20584;-63
2022/05/18 02:46:20;;;;;;;18.38;12.45;;;;;;;;;;5050354;28;20211;-62
2022/05/18 02:48:46;;;;;;;22.88;12.23;;;;;;;;;;5036316;28;20249;-62
2022/05/18 02:51:11;;;;;;;19.92;12.68;;;;;;;;;;5031447;28;20220;-63
2022/05/18 02:53:36;;;;;;;17.40;12.20;;;;;;;;;;5031253;28;20690;-63
2022/05/18 02:56:08;;;;;;;19.17;12.60;;;;;;;;;;5030765;28;20253;-62
2022/05/18 02:58:39;;;;;;;19.02;13.15;;;;;;;;;;5031780;28;20212;-63
2022/05/18 03:01:05;;;;;;;15.13;11.68;;;;;;;;;;5030687;28;20223;-63
2022/05/18 03:03:31;;;;;;;17.42;12.05;;;;;;;;;;5012172;28;20232;-63
2022/05/18 03:05:56;;;;;;;15.40;12.00;;;;;;;;;;5011712;28;20209;-63
2022/05/18 03:08:21;;;;;;;15.98;11.98;;;;;;;;;;5010950;28;20244;-63
2022/05/18 03:10:46;;;;;;;18.00;11.40;;;;;;;;;;5011238;28;20302;-62
2022/05/18 03:13:12;;;;;;;15.45;11.07;;;;;;;;;;5011193;28;20232;-62
2022/05/18 03:15:37;;;;;;;17.20;12.02;;;;;;;;;;5011152;28;20216;-63
2022/05/18 03:18:03;;;;;;;16.13;11.23;;;;;;;;;;5011176;28;20224;-63
2022/05/18 03:25:56;;;;;;;14.70;11.52;;;;;;;;;;5011164;28;20216;-63
2022/05/18 03:28:21;;;;;;;13.90;11.15;;;;;;;;;;5010705;28;20566;-63
2022/05/18 03:30:46;;;;;;;15.73;11.35;;;;;;;;;;5011452;28;20244;-63
2022/05/18 03:33:12;;;;;;;15.90;10.77;;;;;;;;;;5022867;28;20606;-63
2022/05/18 03:35:37;;;;;;;15.15;11.25;;;;;;;;;;5034556;28;20223;-63
2022/05/18 03:38:05;;;;;;;15.38;11.15;;;;;;;;;;5034477;28;20576;-63
2022/05/18 03:40:31;;;;;;;14.95;10.77;;;;;;;;;;5035246;28;20298;-62
2022/05/18 03:42:56;;;;;;;14.15;10.27;;;;;;;;;;5034548;28;20302;-63
2022/05/18 03:45:21;;;;;;;14.55;10.93;;;;;;;;;;5034849;28;20219;-63
2022/05/18 03:47:47;;;;;;;18.35;11.05;;;;;;;;;;5028098;28;20215;-63
2022/05/18 03:50:13;;;;;;;13.70;10.40;;;;;;;;;;5013914;28;20224;-63
2022/05/18 03:52:38;;;;;;;15.15;11.20;;;;;;;;;;5014746;28;20281;-63
2022/05/18 03:55:03;;;;;;;13.82;10.02;;;;;;;;;;5014701;28;20652;-62
2022/05/18 03:57:29;;;;;;;15.82;10.38;;;;;;;;;;5014442;28;20224;-62
2022/05/18 03:59:54;;;;;;;12.60;9.75;;;;;;;;;;5015158;28;20209;-62
2022/05/18 04:02:19;;;;;;;12.88;9.75;;;;;;;;;;5023885;28;20228;-62
2022/05/18 04:04:45;;;;;;;16.05;10.32;;;;;;;;;;5034064;28;20214;-63
2022/05/18 04:07:10;;;;;;;13.13;9.05;;;;;;;;;;5033658;28;20246;-63
2022/05/18 04:09:35;;;;;;;13.95;9.77;;;;;;;;;;5034689;28;20269;-62
2022/05/18 04:12:01;;;;;;;11.52;9.27;;;;;;;;;;5033361;28;20222;-62
2022/05/18 04:14:26;;;;;;;12.75;9.93;;;;;;;;;;5034924;28;20550;-63
2022/05/18 04:16:52;;;;;;;22.60;9.40;;;;;;;;;;5034583;28;20211;-63
2022/05/18 04:19:17;;;;;;;13.90;8.65;;;;;;;;;;5033570;28;20243;-63
2022/05/18 04:21:42;;;;;;;11.98;9.40;;;;;;;;;;5033945;28;20242;-63
2022/05/18 04:24:07;;;;;;;11.88;9.25;;;;;;;;;;5033870;28;20566;-62
2022/05/18 04:26:33;;;;;;;12.90;8.63;;;;;;;;;;5033652;28;20222;-63
2022/05/18 04:28:58;;;;;;;14.35;9.13;;;;;;;;;;5034305;28;20227;-63
2022/05/18 04:31:23;;;;;;;12.85;8.60;;;;;;;;;;5033980;28;20215;-62
2022/05/18 04:33:48;;;;;;;11.43;8.02;;;;;;;;;;5050410;28;20301;-63
2022/05/18 04:36:14;;;;;;;11.45;8.07;;;;;;;;;;5053305;28;20286;-63
2022/05/18 04:38:39;;;;;;;14.20;8.25;;;;;;;;;;5053472;28;20230;-63
2022/05/18 04:41:04;;;;;;;12.10;7.43;;;;;;;;;;5053294;28;20625;-62
2022/05/18 04:43:32;;;;;;;9.02;7.10;;;;;;;;;;5054009;28;20218;-62
2022/05/18 04:45:57;;;;;;;11.98;7.45;;;;;;;;;;5052292;28;20748;-62
2022/05/18 04:48:24;;;;;;;10.80;7.65;;;;;;;;;;5041399;28;20707;-63
2022/05/18 04:50:49;;;;;;;10.13;6.93;;;;;;;;;;5033834;28;20226;-62
2022/05/18 04:53:15;;;;;;;10.90;7.43;;;;;;;;;;5032407;28;20228;-62
2022/05/18 04:55:40;;;;;;;11.30;7.20;;;;;;;;;;5033552;28;20220;-62
2022/05/18 04:58:06;;;;;;;11.15;7.00;;;;;;;;;;5033277;28;20212;-63
2022/05/18 05:00:31;;;;;;;10.40;7.03;;;;;;;;;;5033573;28;20346;-63
2022/05/18 05:02:57;;;;;;;10.82;7.18;;;;;;;;;;5019234;28;20236;-63
2022/05/18 05:05:23;;;;;;;9.52;6.68;;;;;;;;;;5013261;28;20208;-63
2022/05/18 05:07:49;;;;;;;13.70;6.63;;;;;;;;;;5013095;28;20323;-63
2022/05/18 05:10:15;;;;;;;9.75;6.82;;;;;;;;;;5012919;28;20702;-63
2022/05/18 05:12:40;;;;;;;10.32;6.53;;;;;;;;;;5013686;28;20224;-63
2022/05/18 05:15:07;;;;;;;13.18;7.05;;;;;;;;;;5013364;28;20220;-62
2022/05/18 05:17:33;;;;;;;9.25;6.20;;;;;;;;;;5013658;28;20291;-62
2022/05/18 05:19:59;;;;;;;12.95;6.97;;;;;;;;;;5013805;28;20246;-63
2022/05/18 05:22:24;;;;;;;12.07;6.32;;;;;;;;;;5012260;28;20216;-63
2022/05/18 05:24:49;;;;;;;11.93;6.95;;;;;;;;;;5013125;28;20216;-62
2022/05/18 05:27:15;;;;;;;14.70;7.03;;;;;;;;;;5012726;28;20216;-63
2022/05/18 05:29:40;;;;;;;8.75;6.60;;;;;;;;;;5013039;28;20248;-63
2022/05/18 05:32:06;;;;;;;9.35;7.07;;;;;;;;;;5015441;28;20230;-63
2022/05/18 05:34:31;;;;;;;12.93;6.22;;;;;;;;;;5033376;28;20223;-63
2022/05/18 05:36:57;;;;;;;9.82;6.43;;;;;;;;;;5014247;28;20212;-63
2022/05/18 05:39:22;;;;;;;9.50;6.75;;;;;;;;;;5032459;28;20529;-63
2022/05/18 05:41:47;;;;;;;9.85;6.53;;;;;;;;;;5032659;28;20215;-64
2022/05/18 05:44:13;;;;;;;10.23;6.28;;;;;;;;;;5031784;28;20678;-63
2022/05/18 05:46:38;;;;;;;10.52;6.32;;;;;;;;;;5033251;28;20307;-63
2022/05/18 05:49:03;;;;;;;10.13;6.43;;;;;;;;;;5014552;28;20303;-63
2022/05/18 05:51:29;;;;;;;11.27;6.60;;;;;;;;;;5012639;28;20746;-63
2022/05/18 05:53:54;;;;;;;8.98;6.47;;;;;;;;;;5012614;28;20213;-63
2022/05/18 05:56:19;;;;;;;9.70;6.70;;;;;;;;;;5011207;28;20664;-63
2022/05/18 05:58:47;;;;;;;10.13;6.32;;;;;;;;;;5012629;28;20620;-63
2022/05/18 06:01:13;;;;;;;8.27;6.18;;;;;;;;;;5012485;28;20604;-63
2022/05/18 06:03:38;;;;;;;11.48;5.95;;;;;;;;;;5031035;28;20216;-63
2022/05/18 06:06:04;;;;;;;10.18;6.18;;;;;;;;;;5031646;28;20212;-63
2022/05/18 06:08:30;;;;;;;10.23;5.68;;;;;;;;;;5032035;28;20483;-63
2022/05/18 06:10:55;;;;;;;9.13;5.97;;;;;;;;;;5031780;28;20810;-63
2022/05/18 06:13:21;;;;;;;8.88;5.80;;;;;;;;;;5031520;28;20344;-63
2022/05/18 06:15:47;;;;;;;8.40;6.15;;;;;;;;;;5032850;28;20212;-63
2022/05/18 06:18:13;;;;;;;10.13;6.28;;;;;;;;;;5031709;28;20584;-63
2022/05/18 06:20:38;;;;;;;10.57;5.88;;;;;;;;;;5031981;28;20679;-63
2022/05/18 06:23:06;;;;;;;8.60;5.80;;;;;;;;;;5031328;28;20239;-63
2022/05/18 06:25:32;;;;;;;8.68;5.53;;;;;;;;;;5031495;28;20553;-63
2022/05/18 06:27:57;;;;;;;10.23;5.88;;;;;;;;;;5014117;28;20234;-63
2022/05/18 06:30:22;;;;;;;9.88;5.70;;;;;;;;;;5031809;28;20216;-63
2022/05/18 06:32:48;;;;;;;10.13;5.53;;;;;;;;;;5039943;28;20245;-63
2022/05/18 06:35:13;;;;;;;8.00;5.43;;;;;;;;;;5051330;28;20269;-63
2022/05/18 06:37:38;;;;;;;10.27;4.93;;;;;;;;;;5033744;28;20235;-64
2022/05/18 06:40:04;;;;;;;9.20;5.25;;;;;;;;;;5050326;28;20219;-63
2022/05/18 06:42:29;;;;;;;7.93;5.57;;;;;;;;;;5051948;28;20674;-63
2022/05/18 06:44:55;;;;;;;8.40;6.32;;;;;;;;;;5052063;28;20221;-63
2022/05/18 06:47:20;;;;;;;7.60;5.35;;;;;;;;;;5047232;28;20216;-63
2022/05/18 06:49:47;;;;;;;8.93;5.32;;;;;;;;;;5031865;28;20243;-63
2022/05/18 06:52:12;;;;;;;10.80;4.80;;;;;;;;;;5030979;28;20299;-63
2022/05/18 06:54:38;;;;;;;6.55;4.40;;;;;;;;;;5030688;28;20311;-63
2022/05/18 06:57:04;;;;;;;10.27;5.45;;;;;;;;;;5031275;28;20208;-63
2022/05/18 06:59:29;;;;;;;8.73;4.97;;;;;;;;;;5031089;28;20238;-63
2022/05/18 07:01:54;;;;;;;7.15;5.30;;;;;;;;;;5025774;28;20233;-63
2022/05/18 07:04:19;;;;;;;8.38;5.32;;;;;;;;;;5000621;28;20210;-63
2022/05/18 07:06:45;;;;;;;9.85;4.88;;;;;;;;;;4991544;28;20563;-63
2022/05/18 07:09:11;;;;;;;9.98;4.88;;;;;;;;;;4990259;28;20233;-64
2022/05/18 07:11:37;;;;;;;6.88;4.28;;;;;;;;;;4992211;28;20267;-63
2022/05/18 07:14:03;;;;;;;8.30;4.60;;;;;;;;;;4991739;28;20248;-63
2022/05/18 07:16:29;;;;;;;6.95;4.45;;;;;;;;;;4992267;28;20213;-63
2022/05/18 07:18:54;;;;;;;7.03;3.80;;;;;;;;;;4992157;28;20686;-63
2022/05/18 07:21:19;;;;;;;9.52;4.10;;;;;;;;;;4991018;28;20697;-64
2022/05/18 07:23:45;;;;;;;8.73;4.20;;;;;;;;;;4991401;28;20209;-64
2022/05/18 07:26:10;;;;;;;6.32;4.10;;;;;;;;;;4991470;28;20300;-63
2022/05/18 07:28:36;;;;;;;9.02;3.97;;;;;;;;;;4991505;28;20213;-63
2022/05/18 07:31:01;;;;;;;9.75;4.47;;;;;;;;;;4991675;28;20746;-63
2022/05/18 07:33:26;;;;;;;9.98;4.28;;;;;;;;;;5005789;28;20224;-63
2022/05/18 07:35:53;;;;;;;7.90;4.68;;;;;;;;;;5010861;28;20209;-63
2022/05/18 07:38:19;;;;;;;9.25;4.55;;;;;;;;;;5010724;28;20271;-64
2022/05/18 07:40:44;;;;;;;11.55;4.78;;;;;;;;;;5011194;28;20216;-63
2022/05/18 07:43:10;;;;;;;12.27;4.32;;;;;;;;;;5010591;28;20212;-63
2022/05/18 07:45:35;;;;;;;7.93;4.50;;;;;;;;;;5011380;28;20699;-63
2022/05/18 07:48:00;;;;;;;9.57;5.28;;;;;;;;;;5002534;28;20217;-63
2022/05/18 07:50:26;;;;;;;10.25;5.68;;;;;;;;;;4990849;28;20631;-64
2022/05/18 07:52:52;;;;;;;11.73;5.82;;;;;;;;;;4991541;28;20579;-64
2022/05/18 07:55:18;;;;;;;11.38;6.20;;;;;;;;;;4990740;28;20232;-63
2022/05/18 07:57:43;;;;;;;11.57;6.07;;;;;;;;;;4991006;28;20256;-63
2022/05/18 08:00:09;;;;;;;11.55;7.03;;;;;;;;;;4991457;28;20641;-63
2022/05/18 08:02:34;;;;;;;13.07;6.78;;;;;;;;;;5013690;28;20315;-63
2022/05/18 08:05:00;;;;;;;16.65;7.57;;;;;;;;;;5030529;28;20290;-63
2022/05/18 08:07:25;;;;;;;11.57;6.78;;;;;;;;;;5030251;28;20212;-63
2022/05/18 08:15:19;;;;;;;12.98;8.52;;;;;;;;;;5030848;28;20266;-63
2022/05/18 08:17:45;;;;;;;15.73;8.63;;;;;;;;;;5029095;28;20220;-63
2022/05/18 08:20:13;;;;;;;13.75;8.70;;;;;;;;;;5031667;28;20227;-63
2022/05/18 08:22:38;;;;;;;14.50;9.25;;;;;;;;;;5034486;28;20258;-63
2022/05/18 08:25:04;;;;;;;13.10;9.23;;;;;;;;;;5033376;28;20681;-63
2022/05/18 08:27:29;;;;;;;15.00;8.77;;;;;;;;;;5034292;28;20215;-63
2022/05/18 08:29:59;;;;;;;15.80;9.48;;;;;;;;;;5034545;28;20580;-63
2022/05/18 08:32:25;;;;;;;13.52;9.68;;;;;;;;;;5038274;28;20227;-64
2022/05/18 08:34:50;;;;;;;14.27;10.15;;;;;;;;;;5053866;28;20219;-63
2022/05/18 08:37:15;;;;;;;14.50;9.70;;;;;;;;;;5053533;28;20294;-63
2022/05/18 08:39:41;;;;;;;17.95;10.18;;;;;;;;;;5053253;28;20688;-64
2022/05/18 08:42:08;;;;;;;13.75;10.10;;;;;;;;;;5053570;28;20207;-63
2022/05/18 08:44:34;;;;;;;13.32;8.70;;;;;;;;;;5054246;28;20250;-64
2022/05/18 08:47:19;;;;;;;11.43;8.73;;;;;;;;;;5052428;28;20207;-63
2022/05/18 08:49:58;;;;;;;14.68;10.35;;;;;;;;;;5033379;28;20303;-63
2022/05/18 08:52:34;;;;;;;13.07;9.43;;;;;;;;;;5015359;28;20224;-64
2022/05/18 08:55:18;;;;;;;18.20;11.30;;;;;;;;;;5033510;28;20223;-63
2022/05/18 08:57:44;;;;;;;16.40;11.10;;;;;;;;;;5033285;28;20220;-63
2022/05/18 09:00:16;;;;;;;15.60;11.68;;;;;;;;;;5014980;28;20258;-63
2022/05/18 09:02:42;;;;;;;17.17;12.02;;;;;;;;;;5012694;28;20239;-63
2022/05/18 09:05:11;;;;;;;16.77;11.85;;;;;;;;;;5012400;28;20213;-64
2022/05/18 09:07:38;;;;;;;16.42;11.40;;;;;;;;;;5012286;28;20216;-64
2022/05/18 09:10:13;;;;;;;16.90;12.20;;;;;;;;;;5013164;28;20583;-63
2022/05/18 09:12:39;;;;;;;15.98;11.00;;;;;;;;;;5012371;28;20602;-64
2022/05/18 09:15:04;;;;;;;18.00;11.63;;;;;;;;;;5012770;28;20209;-63
2022/05/18 09:17:35;;;;;;;16.55;11.65;;;;;;;;;;5012884;28;20227;-63
2022/05/18 09:20:00;;;;;;;17.33;11.05;;;;;;;;;;5012224;28;20292;-63
2022/05/18 09:22:38;;;;;;;14.80;9.60;;;;;;;;;;5013226;28;20299;-63
2022/05/18 09:25:14;;;;;;;15.05;9.82;;;;;;;;;;5013131;28;20219;-64
2022/05/18 09:27:48;;;;;;;14.77;9.10;;;;;;;;;;5012969;28;20392;-64
2022/05/18 09:30:15;;;;;;;14.05;10.13;;;;;;;;;;5011607;28;20687;-64
2022/05/18 09:32:49;;;;;;;14.80;10.20;;;;;;;;;;5019141;28;20310;-64
2022/05/18 09:35:18;;;;;;;13.32;8.85;;;;;;;;;;5031966;28;20211;-64
2022/05/18 09:37:49;;;;;;;14.45;10.05;;;;;;;;;;5031612;28;20208;-64
2022/05/18 09:40:23;;;;;;;13.35;10.02;;;;;;;;;;5031457;28;20219;-64
2022/05/18 09:42:52;;;;;;;14.95;9.32;;;;;;;;;;5032295;28;20214;-64
2022/05/18 09:45:18;;;;;;;11.32;8.60;;;;;;;;;;5031259;28;20690;-64
2022/05/18 09:47:46;;;;;;;13.07;8.30;;;;;;;;;;5025004;28;20295;-64
2022/05/18 09:50:11;;;;;;;13.52;8.07;;;;;;;;;;5010649;28;20244;-64
2022/05/18 09:52:37;;;;;;;14.23;8.00;;;;;;;;;;5011760;28;20251;-64
2022/05/18 09:55:03;;;;;;;10.43;6.50;;;;;;;;;;5011667;28;20254;-64
2022/05/18 09:57:32;;;;;;;12.30;7.30;;;;;;;;;;5010822;28;20244;-64
2022/05/18 09:59:59;;;;;;;9.85;7.05;;;;;;;;;;5011560;28;20246;-64
2022/05/18 10:07:55;;;;;;;10.35;6.68;;;;;;;;;;5032637;28;20222;-64
2022/05/18 10:10:23;;;;;;;9.27;7.03;;;;;;;;;;5013906;28;20294;-63
2022/05/18 10:12:53;;;;;;;11.85;7.50;;;;;;;;;;5014098;28;20295;-64
2022/05/18 10:15:19;;;;;;;12.13;7.05;;;;;;;;;;5031902;28;20222;-63
2022/05/18 10:17:46;;;;;;;10.45;7.63;;;;;;;;;;5031487;28;20695;-63
2022/05/18 10:20:29;;;;;;;14.00;7.88;;;;;;;;;;5014722;28;20220;-64
2022/05/18 10:22:55;;;;;;;12.82;8.38;;;;;;;;;;5014657;28;20211;-63
2022/05/18 10:25:23;;;;;;;13.48;9.18;;;;;;;;;;5030843;28;20219;-63
2022/05/18 10:27:49;;;;;;;12.77;8.00;;;;;;;;;;5014160;28;20241;-63
2022/05/18 10:30:28;;;;;;;12.73;6.70;;;;;;;;;;5031439;28;20663;-63
2022/05/18 10:32:58;;;;;;;12.77;8.23;;;;;;;;;;5041207;28;20302;-63
2022/05/18 10:35:32;;;;;;;12.52;7.93;;;;;;;;;;5051707;28;20654;-63
2022/05/18 10:38:00;;;;;;;10.25;7.45;;;;;;;;;;5033218;28;20628;-64
2022/05/18 10:40:26;;;;;;;13.05;7.03;;;;;;;;;;5051294;28;20207;-63
2022/05/18 10:42:52;;;;;;;11.35;8.20;;;;;;;;;;5051619;28;20617;-64
2022/05/18 10:45:33;;;;;;;11.13;7.45;;;;;;;;;;5033253;28;20219;-63
2022/05/18 10:48:04;;;;;;;12.23;7.97;;;;;;;;;;5042843;28;20219;-64
2022/05/18 10:50:36;;;;;;;10.90;7.32;;;;;;;;;;5013740;28;20291;-63
2022/05/18 10:53:13;;;;;;;15.95;7.93;;;;;;;;;;5030147;28;20239;-63
2022/05/18 10:55:51;;;;;;;16.20;8.38;;;;;;;;;;5031957;28;20211;-63
2022/05/18 10:58:24;;;;;;;13.23;8.52;;;;;;;;;;5030999;28;20212;-63
2022/05/18 11:00:54;;;;;;;13.85;7.95;;;;;;;;;;5031101;28;20216;-63
2022/05/18 11:03:27;;;;;;;13.18;8.40;;;;;;;;;;5013514;28;20263;-63
2022/05/18 11:05:54;;;;;;;11.95;8.40;;;;;;;;;;5011327;28;20247;-63
2022/05/18 11:08:21;;;;;;;12.35;8.48;;;;;;;;;;5011235;28;20576;-63
2022/05/18 11:10:54;;;;;;;14.77;8.80;;;;;;;;;;5012167;28;20236;-63
2022/05/18 11:13:21;;;;;;;12.68;7.90;;;;;;;;;;4992770;28;20254;-64
2022/05/18 11:15:49;;;;;;;10.10;7.45;;;;;;;;;;5011510;28;20219;-64
2022/05/18 11:18:15;;;;;;;10.38;7.40;;;;;;;;;;5011143;28;20212;-64
2022/05/18 11:20:45;;;;;;;11.00;7.45;;;;;;;;;;5011273;28;20295;-63
2022/05/18 11:23:25;;;;;;;11.25;7.78;;;;;;;;;;5011404;28;20575;-64
2022/05/18 11:26:05;;;;;;;10.60;7.30;;;;;;;;;;5011539;28;20220;-64
2022/05/18 11:28:44;;;;;;;11.18;8.10;;;;;;;;;;5002908;28;20283;-63
2022/05/18 11:31:21;;;;;;;13.27;7.97;;;;;;;;;;5011255;28;20220;-64
2022/05/18 11:33:51;;;;;;;12.23;7.97;;;;;;;;;;5027377;28;20321;-64
2022/05/18 11:36:20;;;;;;;12.95;9.05;;;;;;;;;;5012890;28;20215;-63
2022/05/18 11:38:49;;;;;;;14.40;8.02;;;;;;;;;;5030979;28;20293;-63
2022/05/18 11:41:23;;;;;;;13.75;9.13;;;;;;;;;;5012405;28;20243;-63
2022/05/18 11:43:49;;;;;;;14.95;10.13;;;;;;;;;;5030896;28;20219;-63
2022/05/18 11:46:32;;;;;;;11.73;7.80;;;;;;;;;;5030654;28;20222;-63
2022/05/18 11:48:58;;;;;;;12.73;8.82;;;;;;;;;;5013429;28;20584;-64
2022/05/18 11:51:38;;;;;;;14.25;9.02;;;;;;;;;;5010751;28;20212;-63
2022/05/18 11:54:18;;;;;;;10.63;8.65;;;;;;;;;;4993515;28;20216;-63
2022/05/18 11:57:14;;;;;;;12.50;9.50;;;;;;;;;;4997124;28;20223;-63
2022/05/18 11:59:45;;;;;;;12.68;8.50;;;;;;;;;;5011701;28;20217;-64
2022/05/18 12:02:28;;;;;;;12.48;8.77;;;;;;;;;;5004250;28;20751;-63
2022/05/18 12:05:12;;;;;;;15.63;8.52;;;;;;;;;;5034965;28;20230;-63
2022/05/18 12:07:50;;;;;;;10.35;6.85;;;;;;;;;;5034238;28;20307;-63
2022/05/18 12:10:24;;;;;;;12.30;8.02;;;;;;;;;;5032289;28;20735;-63
2022/05/18 12:12:56;;;;;;;12.32;7.35;;;;;;;;;;5034904;28;20281;-63
2022/05/18 12:15:26;;;;;;;13.02;7.53;;;;;;;;;;5012130;28;20319;-63
2022/05/18 12:17:53;;;;;;;13.80;7.35;;;;;;;;;;5013928;28;20220;-63
2022/05/18 12:20:20;;;;;;;13.35;8.25;;;;;;;;;;5014117;28;20274;-64
2022/05/18 12:22:46;;;;;;;10.93;7.18;;;;;;;;;;5029820;28;20201;-63
2022/05/18 12:25:12;;;;;;;10.13;8.02;;;;;;;;;;5028848;28;20224;-63
2022/05/18 12:27:37;;;;;;;11.05;8.13;;;;;;;;;;5014737;28;20243;-63
2022/05/18 12:30:05;;;;;;;10.25;7.68;;;;;;;;;;5013523;28;20220;-64
2022/05/18 12:32:30;;;;;;;11.82;8.23;;;;;;;;;;5020250;28;20224;-63
2022/05/18 12:35:13;;;;;;;12.18;7.45;;;;;;;;;;5048855;28;20222;-63
2022/05/18 12:37:57;;;;;;;9.68;6.78;;;;;;;;;;5053155;28;20219;-63
2022/05/18 12:40:31;;;;;;;11.13;7.25;;;;;;;;;;5053713;28;20211;-63
2022/05/18 12:42:57;;;;;;;9.43;7.05;;;;;;;;;;5052962;28;20211;-64
2022/05/18 12:45:31;;;;;;;11.20;6.63;;;;;;;;;;5051344;28;20221;-63
2022/05/18 12:48:05;;;;;;;12.18;6.57;;;;;;;;;;5045545;28;20208;-64
2022/05/18 12:50:34;;;;;;;19.95;7.68;;;;;;;;;;5033936;28;20225;-63
2022/05/18 12:52:59;;;;;;;10.73;6.63;;;;;;;;;;5032028;28;20215;-64
2022/05/18 12:55:32;;;;;;;11.77;7.07;;;;;;;;;;5033415;28;20680;-63
2022/05/18 12:58:03;;;;;;;9.45;5.80;;;;;;;;;;5032381;28;20220;-64
2022/05/18 13:00:30;;;;;;;11.80;6.50;;;;;;;;;;5031951;28;20228;-63
2022/05/18 13:02:57;;;;;;;13.85;6.75;;;;;;;;;;5033363;28;20661;-63
2022/05/18 13:05:31;;;;;;;10.93;5.53;;;;;;;;;;5014932;28;20266;-63
2022/05/18 13:08:04;;;;;;;10.82;5.55;;;;;;;;;;5015349;28;20703;-63
2022/05/18 13:10:36;;;;;;;8.80;5.25;;;;;;;;;;5033070;28;20694;-63
2022/05/18 13:13:04;;;;;;;10.73;5.18;;;;;;;;;;5032004;28;20254;-63
2022/05/18 13:15:48;;;;;;;11.18;5.47;;;;;;;;;;5012682;28;20216;-63
2022/05/18 13:18:14;;;;;;;13.27;5.93;;;;;;;;;;5013192;28;20216;-62
2022/05/18 13:20:42;;;;;;;8.95;5.40;;;;;;;;;;5012885;28;20669;-63
2022/05/18 13:23:12;;;;;;;9.98;5.10;;;;;;;;;;5028219;28;20216;-63
2022/05/18 13:25:38;;;;;;;11.40;5.60;;;;;;;;;;5013668;28;20220;-63
2022/05/18 13:28:04;;;;;;;8.38;6.00;;;;;;;;;;5012332;28;20220;-63
2022/05/18 13:30:33;;;;;;;9.18;4.30;;;;;;;;;;5013416;28;20303;-63
2022/05/18 13:32:58;;;;;;;9.82;4.30;;;;;;;;;;5023228;28;20675;-63
2022/05/18 13:35:26;;;;;;;8.10;4.20;;;;;;;;;;5031967;28;20231;-63
2022/05/18 13:37:52;;;;;;;9.77;4.32;;;;;;;;;;5048480;28;20299;-63
2022/05/18 13:40:18;;;;;;;10.45;4.07;;;;;;;;;;5032099;28;20238;-63
2022/05/18 13:42:44;;;;;;;7.03;3.38;;;;;;;;;;5033041;28;20211;-63
2022/05/18 13:45:10;;;;;;;12.93;5.20;;;;;;;;;;5047961;28;20270;-63
2022/05/18 13:47:48;;;;;;;10.05;4.40;;;;;;;;;;5026959;28;20239;-63
2022/05/18 13:50:22;;;;;;;8.13;4.25;;;;;;;;;;5027522;28;20724;-63
2022/05/18 13:52:47;;;;;;;6.35;3.83;;;;;;;;;;5028416;28;20228;-63
2022/05/18 13:55:14;;;;;;;11.90;3.90;;;;;;;;;;5011954;28;20209;-63
2022/05/18 13:57:42;;;;;;;8.10;3.63;;;;;;;;;;5013314;28;20304;-63
2022/05/18 14:00:08;;;;;;;7.85;4.00;;;;;;;;;;5027762;28;20217;-63
2022/05/18 14:02:34;;;;;;;9.07;3.60;;;;;;;;;;5026936;28;20220;-63
2022/05/18 14:05:01;;;;;;;9.85;4.32;;;;;;;;;;5012452;28;20221;-63
2022/05/18 14:07:28;;;;;;;6.43;3.50;;;;;;;;;;5011121;28;20224;-64
2022/05/18 14:09:53;;;;;;;11.27;4.32;;;;;;;;;;5012073;28;20216;-64
2022/05/18 14:12:21;;;;;;;8.75;4.63;;;;;;;;;;5011153;28;20274;-63
2022/05/18 14:14:48;;;;;;;7.55;3.42;;;;;;;;;;5013270;28;20213;-63
2022/05/18 14:17:15;;;;;;;8.20;3.00;;;;;;;;;;5009590;28;20227;-63
2022/05/18 14:19:42;;;;;;;4.78;3.03;;;;;;;;;;5010965;28;20348;-63
2022/05/18 14:22:08;;;;;;;7.40;3.25;;;;;;;;;;5012311;28;20703;-63
2022/05/18 14:24:37;;;;;;;9.23;4.25;;;;;;;;;;5010630;28;20287;-63
2022/05/18 14:27:04;;;;;;;8.77;4.38;;;;;;;;;;5011142;28;20219;-63
2022/05/18 14:29:31;;;;;;;9.10;4.18;;;;;;;;;;5010704;28;20220;-63
2022/05/18 14:31:59;;;;;;;7.93;4.03;;;;;;;;;;5012150;28;20205;-63
2022/05/18 14:34:29;;;;;;;8.20;3.63;;;;;;;;;;5030068;28;20266;-63
2022/05/18 14:36:54;;;;;;;6.63;4.20;;;;;;;;;;5013774;28;20203;-64
2022/05/18 14:39:20;;;;;;;12.20;3.85;;;;;;;;;;5013584;28;20261;-63
2022/05/18 14:41:46;;;;;;;6.80;3.50;;;;;;;;;;5032208;28;20211;-63
2022/05/18 14:44:13;;;;;;;8.30;3.65;;;;;;;;;;5013093;28;20333;-63
2022/05/18 14:46:43;;;;;;;6.57;3.63;;;;;;;;;;5014194;28;20226;-63
2022/05/18 14:49:11;;;;;;;8.13;3.45;;;;;;;;;;5009387;28;20228;-63
2022/05/18 14:51:38;;;;;;;9.30;3.17;;;;;;;;;;5011695;28;20307;-63
2022/05/18 14:54:05;;;;;;;8.07;3.10;;;;;;;;;;5011774;28;20587;-63